createdAt,value
2023-01-25T00:02:07.253Z,68.63
2023-01-25T00:04:34.421Z,72.33
2023-01-25T00:07:02.136Z,71.50
2023-01-25T00:09:29.365Z,67.80
2023-01-25T00:11:58.164Z,71.87
2023-01-25T00:14:25.703Z,70.63
2023-01-25T00:16:53.585Z,68.87
2023-01-25T00:19:20.956Z,62.60
2023-01-25T00:21:48.206Z,70.53
2023-01-25T00:24:16.010Z,68.37
2023-01-25T00:26:46.331Z,67.03
2023-01-25T00:29:14.271Z,78.40
2023-01-25T00:31:46.546Z,79.93
2023-01-25T00:34:38.388Z,75.80
2023-01-25T00:37:35.244Z,71.53
2023-01-25T00:40:02.467Z,84.63
2023-01-25T00:42:29.623Z,74.83
2023-01-25T00:44:56.826Z,82.57
2023-01-25T00:47:24.099Z,75.37
2023-01-25T00:49:51.311Z,73.10
2023-01-25T00:52:18.876Z,77.03
2023-01-25T00:54:46.256Z,77.60
2023-01-25T00:57:13.397Z,66.80
2023-01-25T00:59:44.388Z,71.23
2023-01-25T01:02:12.339Z,73.23
2023-01-25T01:04:39.734Z,79.57
2023-01-25T01:07:07.098Z,71.60
2023-01-25T01:09:34.390Z,64.03
2023-01-25T01:12:01.709Z,78.83
2023-01-25T01:14:29.025Z,75.50
2023-01-25T01:16:58.017Z,74.43
2023-01-25T01:19:25.435Z,74.47
2023-01-25T01:21:52.747Z,69.73
2023-01-25T01:24:20.160Z,70.63
2023-01-25T01:26:47.457Z,72.20
2023-01-25T01:29:14.647Z,68.13
2023-01-25T01:31:41.972Z,74.10
2023-01-25T01:34:12.864Z,70.53
2023-01-25T01:36:40.092Z,76.27
2023-01-25T01:39:07.247Z,64.00
2023-01-25T01:41:34.524Z,65.17
2023-01-25T01:44:01.762Z,67.27
2023-01-25T01:46:33.366Z,66.13
2023-01-25T01:49:24.161Z,68.87
2023-01-25T01:51:53.634Z,62.33
2023-01-25T01:54:27.659Z,67.37
2023-01-25T01:57:07.168Z,64.00
2023-01-25T01:59:47.249Z,71.13
2023-01-25T02:02:15.092Z,68.10
2023-01-25T02:04:45.051Z,67.83
2023-01-25T02:07:18.425Z,55.97
2023-01-25T02:09:45.643Z,63.67
2023-01-25T02:12:13.914Z,57.60
2023-01-25T02:14:45.459Z,58.23
2023-01-25T02:17:12.988Z,57.70
2023-01-25T02:19:43.158Z,56.20
2023-01-25T02:22:13.460Z,51.93
2023-01-25T02:24:43.913Z,61.47
2023-01-25T02:27:11.368Z,59.33
2023-01-25T02:29:38.598Z,57.87
2023-01-25T02:32:06.577Z,54.30
2023-01-25T02:34:33.906Z,56.97
2023-01-25T02:37:01.091Z,59.07
2023-01-25T02:39:28.406Z,57.83
2023-01-25T02:41:55.592Z,52.07
2023-01-25T02:44:25.589Z,57.90
2023-01-25T02:46:53.078Z,53.47
2023-01-25T02:49:20.913Z,50.53
2023-01-25T02:51:49.360Z,54.83
2023-01-25T02:54:17.996Z,53.30
2023-01-25T02:56:45.468Z,53.90
2023-01-25T02:59:13.496Z,54.80
2023-01-25T03:01:41.826Z,56.13
2023-01-25T03:04:09.272Z,62.90
2023-01-25T03:06:36.518Z,57.70
2023-01-25T03:09:04.955Z,63.13
2023-01-25T03:11:32.499Z,64.23
2023-01-25T03:13:59.723Z,53.80
2023-01-25T03:16:27.221Z,53.33
2023-01-25T03:18:55.396Z,54.73
2023-01-25T03:21:23.279Z,51.50
2023-01-25T03:23:56.379Z,55.40
2023-01-25T03:26:24.131Z,50.57
2023-01-25T03:28:51.548Z,54.37
2023-01-25T03:31:18.891Z,51.80
2023-01-25T03:33:46.598Z,50.50
2023-01-25T03:36:13.939Z,52.57
2023-01-25T03:38:41.316Z,46.67
2023-01-25T03:41:09.493Z,52.67
2023-01-25T03:43:36.651Z,52.83
2023-01-25T03:46:04.187Z,47.73
2023-01-25T03:48:31.722Z,52.87
2023-01-25T03:51:00.286Z,51.63
2023-01-25T03:53:29.787Z,48.57
2023-01-25T03:55:58.292Z,50.23
2023-01-25T03:58:25.717Z,45.83
2023-01-25T04:00:55.742Z,41.03
2023-01-25T04:03:23.236Z,40.60
2023-01-25T04:05:50.732Z,40.40
2023-01-25T04:08:18.028Z,41.20
2023-01-25T04:10:45.778Z,33.53
2023-01-25T04:13:12.996Z,30.20
2023-01-25T04:15:48.227Z,31.83
2023-01-25T04:18:15.544Z,35.20
2023-01-25T04:20:43.358Z,37.93
2023-01-25T04:23:11.085Z,31.47
2023-01-25T04:25:39.176Z,30.80
2023-01-25T04:28:06.365Z,33.90
2023-01-25T04:30:33.498Z,32.13
2023-01-25T04:33:05.016Z,27.10
2023-01-25T04:35:32.714Z,24.93
2023-01-25T04:38:00.511Z,28.87
2023-01-25T04:40:27.995Z,29.53
2023-01-25T04:42:55.327Z,27.23
2023-01-25T04:45:23.989Z,30.27
2023-01-25T04:47:51.697Z,32.50
2023-01-25T04:50:18.937Z,28.17
2023-01-25T04:52:46.122Z,28.17
2023-01-25T04:55:13.610Z,27.87
2023-01-25T04:57:41.060Z,29.23
2023-01-25T05:00:08.841Z,26.87
2023-01-25T05:02:36.033Z,29.93
2023-01-25T05:05:03.664Z,26.17
2023-01-25T05:07:30.822Z,27.57
2023-01-25T05:09:58.265Z,30.83
2023-01-25T05:12:25.468Z,24.70
2023-01-25T05:14:52.635Z,26.03
2023-01-25T05:17:20.100Z,27.73
2023-01-25T05:19:47.370Z,21.67
2023-01-25T05:22:15.502Z,28.60
2023-01-25T05:24:45.585Z,23.37
2023-01-25T05:27:13.924Z,29.07
2023-01-25T05:29:41.903Z,28.60
2023-01-25T05:32:13.263Z,27.03
2023-01-25T05:34:40.478Z,23.97
2023-01-25T05:37:08.481Z,26.93
2023-01-25T05:39:35.669Z,27.00
2023-01-25T05:42:02.844Z,25.80
2023-01-25T05:44:30.336Z,26.23
2023-01-25T05:46:57.527Z,25.37
2023-01-25T05:49:24.673Z,25.60
2023-01-25T05:51:51.932Z,23.63
2023-01-25T05:54:19.457Z,26.43
2023-01-25T05:56:46.758Z,27.93
2023-01-25T05:59:13.947Z,23.93
2023-01-25T06:01:41.144Z,24.60
2023-01-25T06:04:08.390Z,25.50
2023-01-25T06:06:35.726Z,23.97
2023-01-25T06:09:02.923Z,21.90
2023-01-25T06:11:30.055Z,23.70
2023-01-25T06:13:57.378Z,23.17
2023-01-25T06:16:24.718Z,21.90
2023-01-25T06:18:52.026Z,23.33
2023-01-25T06:21:19.338Z,26.47
2023-01-25T06:23:46.521Z,23.23
2023-01-25T06:26:14.320Z,24.00
2023-01-25T06:28:41.534Z,22.20
2023-01-25T06:31:13.603Z,23.97
2023-01-25T06:33:41.756Z,22.07
2023-01-25T06:36:12.719Z,23.80
2023-01-25T06:38:40.268Z,24.20
2023-01-25T06:41:10.405Z,22.67
2023-01-25T06:43:38.287Z,27.20
2023-01-25T06:46:07.393Z,25.60
2023-01-25T06:48:35.041Z,25.60
2023-01-25T06:51:03.680Z,34.13
2023-01-25T06:53:31.743Z,24.47
2023-01-25T06:56:02.620Z,19.40
2023-01-25T06:58:30.618Z,19.00
2023-01-25T07:01:27.583Z,19.97
2023-01-25T07:03:55.884Z,23.37
2023-01-25T07:06:23.523Z,21.90
2023-01-25T07:08:51.331Z,17.90
2023-01-25T07:11:19.155Z,22.10
2023-01-25T07:13:47.198Z,18.17
2023-01-25T07:16:19.820Z,19.57
2023-01-25T07:18:47.505Z,18.03
2023-01-25T07:21:16.354Z,21.80
2023-01-25T07:23:43.848Z,20.63
2023-01-25T07:26:21.167Z,25.07
2023-01-25T07:28:48.793Z,28.67
2023-01-25T07:31:16.870Z,31.23
2023-01-25T07:33:44.219Z,29.90
2023-01-25T07:36:12.159Z,19.60
2023-01-25T07:38:39.380Z,18.20
2023-01-25T07:41:07.368Z,24.00
2023-01-25T07:43:34.520Z,22.43
2023-01-25T07:46:03.099Z,22.97
2023-01-25T07:48:30.363Z,16.63
2023-01-25T07:51:22.569Z,19.13
2023-01-25T07:53:54.362Z,20.83
2023-01-25T07:56:22.995Z,22.77
2023-01-25T07:58:50.247Z,18.73
2023-01-25T08:01:18.868Z,17.37
2023-01-25T08:03:47.196Z,20.23
2023-01-25T08:06:14.898Z,22.27
2023-01-25T08:08:46.542Z,23.73
2023-01-25T08:11:14.062Z,22.50
2023-01-25T08:13:41.813Z,20.00
2023-01-25T08:16:09.907Z,20.33
2023-01-25T08:18:37.058Z,20.87
2023-01-25T08:21:04.358Z,20.90
2023-01-25T08:23:31.528Z,23.40
2023-01-25T08:26:05.296Z,24.30
2023-01-25T08:28:32.463Z,25.80
2023-01-25T08:31:09.277Z,19.43
2023-01-25T08:33:37.292Z,23.90
2023-01-25T08:36:05.237Z,23.53
2023-01-25T08:38:32.692Z,22.83
2023-01-25T08:41:16.459Z,21.80
2023-01-25T08:43:44.486Z,21.90
2023-01-25T08:46:11.694Z,34.70
2023-01-25T08:48:39.105Z,34.17
2023-01-25T08:51:08.746Z,21.03
2023-01-25T08:53:36.118Z,24.17
2023-01-25T08:56:05.931Z,22.90
2023-01-25T08:58:33.480Z,23.97
2023-01-25T09:01:05.301Z,22.40
2023-01-25T09:03:33.037Z,23.53
2023-01-25T09:06:00.304Z,22.33
2023-01-25T09:08:27.448Z,21.40
2023-01-25T09:10:54.980Z,23.40
2023-01-25T09:13:22.117Z,23.50
2023-01-25T09:15:49.258Z,21.63
2023-01-25T09:18:16.489Z,20.03
2023-01-25T09:20:43.635Z,20.33
2023-01-25T09:23:11.410Z,23.83
2023-01-25T09:25:38.686Z,21.27
2023-01-25T09:28:11.074Z,22.17
2023-01-25T09:30:46.853Z,19.40
2023-01-25T09:33:17.549Z,22.33
2023-01-25T09:35:49.415Z,30.20
2023-01-25T09:38:16.798Z,23.93
2023-01-25T09:40:48.966Z,25.67
2023-01-25T09:43:21.111Z,24.00
2023-01-25T09:45:48.678Z,27.20
2023-01-25T09:48:34.813Z,24.93
2023-01-25T09:51:17.989Z,26.00
2023-01-25T09:53:52.015Z,22.73
2023-01-25T09:56:30.797Z,21.10
2023-01-25T09:59:09.401Z,18.80
2023-01-25T10:01:49.154Z,23.30
2023-01-25T10:04:20.981Z,21.57
2023-01-25T10:07:00.080Z,25.83
2023-01-25T10:09:46.181Z,26.67
2023-01-25T10:12:16.358Z,26.93
2023-01-25T10:14:46.640Z,25.97
2023-01-25T10:17:26.279Z,25.83
2023-01-25T10:20:05.513Z,30.07
2023-01-25T10:22:58.901Z,25.67
2023-01-25T10:25:29.112Z,27.53
2023-01-25T10:28:02.517Z,29.93
2023-01-25T10:30:30.867Z,26.60
2023-01-25T10:33:01.178Z,24.07
2023-01-25T10:35:36.071Z,23.07
2023-01-25T10:38:06.234Z,24.63
2023-01-25T10:40:40.341Z,23.60
2023-01-25T10:43:13.249Z,23.83
2023-01-25T10:45:43.074Z,26.73
2023-01-25T10:48:13.227Z,26.87
2023-01-25T10:50:43.399Z,26.80
2023-01-25T10:53:33.668Z,24.87
2023-01-25T10:56:13.427Z,25.77
2023-01-25T10:58:46.333Z,28.30
2023-01-25T11:01:15.250Z,29.53
2023-01-25T11:03:46.249Z,24.97
2023-01-25T11:06:13.443Z,28.83
2023-01-25T11:08:42.313Z,28.70
2023-01-25T11:11:28.351Z,29.37
2023-01-25T11:13:55.658Z,27.63
2023-01-25T11:16:25.676Z,33.77
2023-01-25T11:18:54.221Z,37.63
2023-01-25T11:21:35.033Z,42.20
2023-01-25T11:24:20.296Z,33.73
2023-01-25T11:26:48.042Z,30.83
2023-01-25T11:29:19.881Z,31.33
2023-01-25T11:31:48.512Z,31.33
2023-01-25T11:34:17.383Z,32.60
2023-01-25T11:36:51.206Z,23.70
2023-01-25T11:39:24.526Z,29.83
2023-01-25T11:41:52.025Z,29.23
2023-01-25T11:44:27.030Z,26.03
2023-01-25T11:46:57.358Z,28.10
2023-01-25T11:49:43.133Z,27.63
2023-01-25T11:52:30.960Z,29.47
2023-01-25T11:55:07.263Z,27.93
2023-01-25T11:57:40.309Z,29.63
2023-01-25T12:00:29.207Z,29.40
2023-01-25T12:02:56.450Z,30.03
2023-01-25T12:05:26.452Z,34.73
2023-01-25T12:08:08.897Z,29.27
2023-01-25T12:10:42.080Z,30.43
2023-01-25T12:13:16.326Z,34.57
2023-01-25T12:15:44.155Z,33.63
2023-01-25T12:18:34.574Z,34.43
2023-01-25T12:21:22.945Z,33.03
2023-01-25T12:24:22.895Z,27.37
2023-01-25T12:26:53.341Z,28.53
2023-01-25T12:29:25.540Z,35.40
2023-01-25T12:31:55.937Z,27.37
2023-01-25T12:34:36.910Z,33.47
2023-01-25T12:37:13.477Z,28.93
2023-01-25T12:39:47.595Z,27.70
2023-01-25T12:42:20.680Z,30.93
2023-01-25T12:45:00.677Z,33.93
2023-01-25T12:47:33.018Z,32.23
2023-01-25T12:50:02.567Z,31.90
2023-01-25T12:52:36.770Z,29.27
2023-01-25T12:55:08.036Z,30.37
2023-01-25T12:57:38.202Z,37.03
2023-01-25T13:00:14.625Z,33.20
2023-01-25T13:02:44.848Z,33.73
2023-01-25T13:05:13.452Z,30.93
2023-01-25T13:07:54.384Z,40.37
2023-01-25T13:10:30.895Z,36.53
2023-01-25T13:13:05.544Z,30.77
2023-01-25T13:15:36.168Z,29.83
2023-01-25T13:18:23.272Z,30.67
2023-01-25T13:20:53.010Z,33.40
2023-01-25T13:23:47.736Z,31.27
2023-01-25T13:26:25.647Z,36.03
2023-01-25T13:28:53.969Z,41.73
2023-01-25T13:31:52.030Z,37.90
2023-01-25T13:34:39.531Z,34.37
2023-01-25T13:37:20.697Z,40.23
2023-01-25T13:39:47.985Z,33.57
2023-01-25T13:42:23.211Z,38.20
2023-01-25T13:45:02.554Z,34.60
2023-01-25T13:47:37.876Z,37.83
2023-01-25T13:50:26.516Z,39.17
2023-01-25T13:53:04.151Z,34.27
2023-01-25T13:55:39.602Z,38.93
2023-01-25T13:58:19.436Z,36.87
2023-01-25T14:00:53.406Z,36.53
2023-01-25T14:03:23.532Z,36.97
2023-01-25T14:05:54.853Z,36.67
2023-01-25T14:08:22.180Z,35.40
2023-01-25T14:10:49.924Z,36.97
2023-01-25T14:13:17.890Z,37.90
2023-01-25T14:15:55.807Z,39.97
2023-01-25T14:18:27.332Z,40.83
2023-01-25T14:21:10.331Z,41.23
2023-01-25T14:23:37.464Z,41.20
2023-01-25T14:26:04.962Z,40.53
2023-01-25T14:28:32.286Z,42.37
2023-01-25T14:31:03.502Z,44.10
2023-01-25T14:33:30.720Z,44.30
2023-01-25T14:36:16.326Z,42.70
2023-01-25T14:38:51.542Z,46.30
2023-01-25T14:41:33.276Z,48.13
2023-01-25T14:44:04.917Z,48.90
2023-01-25T14:46:33.329Z,47.57
2023-01-25T14:49:07.713Z,47.07
2023-01-25T14:51:37.935Z,48.63
2023-01-25T14:54:06.623Z,54.57
2023-01-25T14:56:36.126Z,40.27
2023-01-25T14:59:04.867Z,52.30
2023-01-25T15:01:40.100Z,49.47
2023-01-25T15:04:11.698Z,44.47
2023-01-25T15:06:46.472Z,50.33
2023-01-25T15:09:33.149Z,52.73
2023-01-25T15:12:01.767Z,49.43
2023-01-25T15:14:29.074Z,46.07
2023-01-25T15:16:56.608Z,49.40
2023-01-25T15:19:26.065Z,47.67
2023-01-25T15:21:55.215Z,53.57
2023-01-25T15:24:23.544Z,54.47
2023-01-25T15:26:51.874Z,50.30
2023-01-25T15:29:23.372Z,52.73
2023-01-25T15:31:51.658Z,46.33
2023-01-25T15:34:22.763Z,47.13
2023-01-25T15:36:50.437Z,47.23
2023-01-25T15:39:18.583Z,50.03
2023-01-25T15:41:46.418Z,54.93
2023-01-25T15:44:14.092Z,51.60
2023-01-25T15:46:43.668Z,53.07
2023-01-25T15:49:14.564Z,51.70
2023-01-25T15:51:41.763Z,44.03
2023-01-25T15:54:09.431Z,49.00
2023-01-25T15:56:37.833Z,52.83
2023-01-25T15:59:09.237Z,47.80
2023-01-25T16:01:36.574Z,49.30
2023-01-25T16:04:03.966Z,73.60
2023-01-25T16:06:37.138Z,70.77
2023-01-25T16:09:12.651Z,69.53
2023-01-25T16:11:39.800Z,64.93
2023-01-25T16:14:06.977Z,65.53
2023-01-25T16:16:35.224Z,56.10
2023-01-25T16:19:02.532Z,59.80
2023-01-25T16:21:29.751Z,101.63
2023-01-25T16:23:57.463Z,125.60
2023-01-25T16:26:26.092Z,136.80
2023-01-25T16:28:53.491Z,105.97
2023-01-25T16:31:31.860Z,80.80
2023-01-25T16:34:00.541Z,70.73
2023-01-25T16:36:27.794Z,61.17
2023-01-25T16:38:55.041Z,68.00
2023-01-25T16:41:22.467Z,72.13
2023-01-25T16:43:49.969Z,73.33
2023-01-25T16:46:21.305Z,73.13
2023-01-25T16:48:49.510Z,269.47
2023-01-25T16:51:27.059Z,197.07
2023-01-25T16:53:55.677Z,133.50
2023-01-25T16:56:24.175Z,86.63
2023-01-25T16:58:51.929Z,69.67
2023-01-25T17:01:20.071Z,64.23
2023-01-25T17:03:47.543Z,62.87
2023-01-25T17:06:19.658Z,56.67
2023-01-25T17:08:50.300Z,56.40
2023-01-25T17:11:18.979Z,58.87
2023-01-25T17:13:53.106Z,63.77
2023-01-25T17:16:21.058Z,59.77
2023-01-25T17:18:48.783Z,59.53
2023-01-25T17:21:17.776Z,58.90
2023-01-25T17:23:44.979Z,56.27
2023-01-25T17:26:13.755Z,47.93
2023-01-25T17:28:41.439Z,56.83
2023-01-25T17:31:22.486Z,55.87
2023-01-25T17:33:50.291Z,93.87
2023-01-25T17:36:17.556Z,96.13
2023-01-25T17:38:45.220Z,90.13
2023-01-25T17:41:13.733Z,77.63
2023-01-25T17:43:41.222Z,75.87
2023-01-25T17:46:14.993Z,79.00
2023-01-25T17:48:42.426Z,64.30
2023-01-25T17:51:09.664Z,66.30
2023-01-25T17:53:36.901Z,72.07
2023-01-25T17:56:05.124Z,73.03
2023-01-25T17:58:32.588Z,65.97
2023-01-25T18:01:12.978Z,76.27
2023-01-25T18:03:41.632Z,70.47
2023-01-25T18:06:11.370Z,82.30
2023-01-25T18:08:46.289Z,95.43
2023-01-25T18:11:15.393Z,93.50
2023-01-25T18:13:47.889Z,79.80
2023-01-25T18:16:16.073Z,74.37
2023-01-25T18:18:44.038Z,61.27
2023-01-25T18:21:13.455Z,59.37
2023-01-25T18:23:41.417Z,61.77
2023-01-25T18:26:17.212Z,56.50
2023-01-25T18:28:44.385Z,58.53
2023-01-25T18:31:11.694Z,70.80
2023-01-25T18:33:39.191Z,82.07
2023-01-25T18:36:06.988Z,85.70
2023-01-25T18:38:34.337Z,86.50
2023-01-25T18:41:01.651Z,68.77
2023-01-25T18:43:29.096Z,64.90
2023-01-25T18:45:57.542Z,76.17
2023-01-25T18:48:31.729Z,77.80
2023-01-25T18:51:06.467Z,81.20
2023-01-25T18:53:34.870Z,87.93
2023-01-25T18:56:07.297Z,82.67
2023-01-25T18:58:36.403Z,96.27
2023-01-25T19:01:12.372Z,80.77
2023-01-25T19:03:39.772Z,87.60
2023-01-25T19:06:07.867Z,74.33
2023-01-25T19:08:43.257Z,78.57
2023-01-25T19:11:17.423Z,77.97
2023-01-25T19:13:45.454Z,70.13
2023-01-25T19:16:20.409Z,78.73
2023-01-25T19:18:50.190Z,73.97
2023-01-25T19:21:22.069Z,83.77
2023-01-25T19:23:49.994Z,75.50
2023-01-25T19:26:18.692Z,76.30
2023-01-25T19:28:46.723Z,78.10
2023-01-25T19:31:18.878Z,74.10
2023-01-25T19:33:46.529Z,83.30
2023-01-25T19:36:16.870Z,89.13
2023-01-25T19:38:44.453Z,96.90
2023-01-25T19:41:13.427Z,94.97
2023-01-25T19:43:44.538Z,91.37
2023-01-25T19:46:19.436Z,97.03
2023-01-25T19:48:49.823Z,88.10
2023-01-25T19:51:18.608Z,80.63
2023-01-25T19:53:47.758Z,90.27
2023-01-25T19:56:16.445Z,89.47
2023-01-25T19:58:47.803Z,95.20
2023-01-25T20:01:19.816Z,88.10
2023-01-25T20:03:47.830Z,91.47
2023-01-25T20:06:16.582Z,89.93
2023-01-25T20:08:45.185Z,106.40
2023-01-25T20:11:15.665Z,99.63
2023-01-25T20:13:43.721Z,108.90
2023-01-25T20:16:12.394Z,95.07
2023-01-25T20:18:40.621Z,90.57
2023-01-25T20:21:09.314Z,95.97
2023-01-25T20:23:37.928Z,94.13
2023-01-25T20:26:07.215Z,91.10
2023-01-25T20:28:35.509Z,94.10
2023-01-25T20:31:06.306Z,95.77
2023-01-25T20:33:34.375Z,94.60
2023-01-25T20:36:02.432Z,92.90
2023-01-25T20:38:30.714Z,104.43
2023-01-25T20:41:02.075Z,112.23
2023-01-25T20:43:30.000Z,108.93
2023-01-25T20:45:57.594Z,103.40
2023-01-25T20:48:25.642Z,94.83
2023-01-25T20:50:53.153Z,116.43
2023-01-25T20:53:20.641Z,112.13
2023-01-25T20:55:54.853Z,111.67
2023-01-25T20:58:22.235Z,118.03
2023-01-25T21:00:49.674Z,116.30
2023-01-25T21:03:17.231Z,143.53
2023-01-25T21:06:10.965Z,124.97
2023-01-25T21:08:38.372Z,97.80
2023-01-25T21:11:05.874Z,163.07
2023-01-25T21:13:33.290Z,155.03
2023-01-25T21:16:00.638Z,202.03
2023-01-25T21:18:31.928Z,157.67
2023-01-25T21:21:12.582Z,158.87
2023-01-25T21:23:41.404Z,173.17
2023-01-25T21:26:10.803Z,173.67
2023-01-25T21:28:38.203Z,163.00
2023-01-25T21:31:13.032Z,143.90
2023-01-25T21:33:40.719Z,131.03
2023-01-25T21:36:09.251Z,109.00
2023-01-25T21:38:36.980Z,117.40
2023-01-25T21:41:05.415Z,138.03
2023-01-25T21:43:55.503Z,148.03
2023-01-25T21:46:26.824Z,178.00
2023-01-25T21:49:19.726Z,176.70
2023-01-25T21:51:51.553Z,145.30
2023-01-25T21:54:23.428Z,154.23
2023-01-25T21:56:51.577Z,140.27
2023-01-25T21:59:18.985Z,135.90
2023-01-25T22:01:46.487Z,125.37
2023-01-25T22:04:14.019Z,119.37
2023-01-25T22:06:41.194Z,121.03
2023-01-25T22:09:08.852Z,149.17
2023-01-25T22:11:36.042Z,160.03
2023-01-25T22:14:03.245Z,151.77
2023-01-25T22:16:30.517Z,168.90
2023-01-25T22:19:00.004Z,157.03
2023-01-25T22:21:32.161Z,136.73
2023-01-25T22:24:03.588Z,108.70
2023-01-25T22:26:33.624Z,121.80
2023-01-25T22:29:01.163Z,100.40
2023-01-25T22:31:29.942Z,112.13
2023-01-25T22:33:59.251Z,115.93
2023-01-25T22:36:27.794Z,117.63
2023-01-25T22:38:55.388Z,109.13
2023-01-25T22:41:23.538Z,125.53
2023-01-25T22:43:51.046Z,130.07
2023-01-25T22:46:19.529Z,155.67
2023-01-25T22:48:47.159Z,132.07
2023-01-25T22:51:15.730Z,136.23
2023-01-25T22:53:43.320Z,120.90
2023-01-25T22:56:13.273Z,120.77
2023-01-25T22:58:41.479Z,117.83
2023-01-25T23:01:12.652Z,122.60
2023-01-25T23:03:39.899Z,126.03
2023-01-25T23:06:08.919Z,116.77
2023-01-25T23:08:37.081Z,112.63
2023-01-25T23:11:05.421Z,124.67
2023-01-25T23:13:33.335Z,125.73
2023-01-25T23:16:04.754Z,141.57
2023-01-25T23:18:50.510Z,144.83
2023-01-25T23:21:21.266Z,129.47
2023-01-25T23:23:48.816Z,136.67
2023-01-25T23:26:17.565Z,140.80
2023-01-25T23:28:50.731Z,139.63
2023-01-25T23:31:18.205Z,122.70
2023-01-25T23:33:46.352Z,128.80
2023-01-25T23:36:14.929Z,123.07
2023-01-25T23:38:42.650Z,129.73
2023-01-25T23:41:10.545Z,110.23
2023-01-25T23:43:38.228Z,120.70
2023-01-25T23:46:05.983Z,99.23
2023-01-25T23:48:33.497Z,101.10
2023-01-25T23:51:02.611Z,107.23
2023-01-25T23:53:33.663Z,106.43
2023-01-25T23:56:14.405Z,108.30
2023-01-25T23:58:41.780Z,96.53
